Ahsahka, Idaho
Current Conditions -  °F | °C
As of 11:56 PM on Sunday 21 Dec 2014 (Local Time) from KLWS Reporting Station
Overcast Overcast  
Wind Chill: 50°   Ceiling: 10000
Heat Index: 50°   Visibility: 10mi
Dew Point: 35°   Wind: 8mph
Humidity: 57%   Direction: 290°WNW
Pressure: 30.02"   Gusts: NA
Location:  46.51°N, 116.35°W
Report Text: KLWS 220756Z AUTO 29007KT 260V320 10SM OVC100 10/02 A3002 RMK AO2 RAE30 SLP168 P0000 T01000017 401560083
Loading
Personal Weather Stations






























Interactive Weather Map New forecast layout! Learn more

10-Day Weather Forecast

Advertisements
Track Severe Weather on mobile